Saint Petersburg Beach, Florida
Current Conditions -  °F | °C
As of 3:53 PM on Sunday 23 Nov 2014 (Local Time) from KSPG Reporting Station
Clear Clear  
Wind Chill: 79°   Ceiling: Unl
Heat Index: 82°   Visibility: 10mi
Dew Point: 71°   Wind: 15mph
Humidity: 77%   Direction: 210°SSW
Pressure: 29.87"   Gusts: 25mph
Location:  27.7254°N, 82.7422°W
Report Text: KSPG 232053Z 21013G22KT 10SM CLR 26/22 A2987 RMK AO2 SLP113 T02610217 55010
Loading
Personal Weather Stations






























Interactive Weather Map New forecast layout! Learn more

10-Day Weather Forecast

Advertisements
Track Severe Weather on mobile